createdAt,value
2023-03-23T00:00:28.014Z,5.0
2023-03-23T00:05:34.334Z,4.9
2023-03-23T00:10:21.111Z,5.0
2023-03-23T00:15:27.399Z,5.1
2023-03-23T00:20:33.493Z,5.1
2023-03-23T00:25:22.263Z,5.1
2023-03-23T00:30:27.752Z,5.1
2023-03-23T00:35:17.025Z,5.1
2023-03-23T00:40:24.389Z,5.1
2023-03-23T00:45:28.849Z,5.1
2023-03-23T00:50:19.788Z,5.2
2023-03-23T00:55:23.949Z,5.2
2023-03-23T01:00:32.872Z,5.2
2023-03-23T01:05:18.364Z,5.1
2023-03-23T01:10:24.490Z,5.1
2023-03-23T01:15:30.499Z,5.0
2023-03-23T01:20:20.741Z,5.0
2023-03-23T01:25:25.788Z,5.1
2023-03-23T01:30:31.980Z,5.1
2023-03-23T01:35:20.944Z,5.1
2023-03-23T01:40:27.111Z,5.1
2023-03-23T01:45:33.365Z,5.1
2023-03-23T01:50:22.131Z,5.2
2023-03-23T01:55:28.553Z,5.2
2023-03-23T02:00:18.723Z,5.3
2023-03-23T02:05:23.273Z,5.3
2023-03-23T02:10:29.755Z,5.4
2023-03-23T02:15:17.751Z,5.5
2023-03-23T02:20:23.943Z,5.6
2023-03-23T02:25:30.113Z,5.6
2023-03-23T02:30:18.922Z,5.8
2023-03-23T02:35:25.089Z,6.2
2023-03-23T02:40:32.920Z,6.6
2023-03-23T02:45:19.786Z,7.0
2023-03-23T02:50:26.010Z,7.2
2023-03-23T02:55:32.070Z,7.6
2023-03-23T03:00:24.976Z,7.8
2023-03-23T03:05:26.438Z,7.9
2023-03-23T03:10:32.761Z,8.1
2023-03-23T03:15:21.478Z,8.4
2023-03-23T03:20:29.179Z,8.8
2023-03-23T03:25:18.658Z,9.1
2023-03-23T03:30:23.246Z,9.5
2023-03-23T03:35:29.310Z,9.8
2023-03-23T03:40:18.388Z,10.1
2023-03-23T03:45:24.202Z,9.9
2023-03-23T03:50:30.280Z,9.7
2023-03-23T03:55:19.578Z,9.6
2023-03-23T04:00:29.543Z,9.5
2023-03-23T04:05:30.854Z,9.2
2023-03-23T04:10:32.719Z,9.5
2023-03-23T04:15:25.745Z,9.9
2023-03-23T04:20:32.371Z,9.9
2023-03-23T04:25:20.774Z,10.1
2023-03-23T04:30:26.498Z,10.3
2023-03-23T04:35:32.525Z,10.7
2023-03-23T04:40:23.416Z,10.8
2023-03-23T04:45:27.595Z,10.9
2023-03-23T04:50:16.638Z,10.9
2023-03-23T04:55:22.722Z,10.9
2023-03-23T05:00:32.388Z,10.8
2023-03-23T05:05:18.143Z,10.8
2023-03-23T05:10:24.668Z,10.7
2023-03-23T05:15:29.651Z,10.4
2023-03-23T05:20:18.859Z,10.1
2023-03-23T05:25:25.081Z,9.8
2023-03-23T05:30:31.318Z,9.8
2023-03-23T05:35:19.797Z,9.8
2023-03-23T05:40:27.381Z,9.9
2023-03-23T05:45:32.214Z,10.3
2023-03-23T05:50:21.168Z,10.5
2023-03-23T05:55:27.112Z,10.8
2023-03-23T06:00:36.513Z,11.2
2023-03-23T06:05:21.715Z,11.4
2023-03-23T06:10:29.088Z,11.5
2023-03-23T06:15:16.635Z,11.5
2023-03-23T06:20:24.299Z,11.8
2023-03-23T06:25:29.040Z,11.9
2023-03-23T06:30:19.254Z,12.0
2023-03-23T06:35:23.649Z,11.8
2023-03-23T06:40:29.714Z,11.7
2023-03-23T06:45:18.963Z,11.9
2023-03-23T06:50:25.117Z,12.2
2023-03-23T06:55:30.826Z,12.3
2023-03-23T07:00:23.414Z,12.3
2023-03-23T07:05:26.350Z,12.5
2023-03-23T07:10:32.368Z,12.6
2023-03-23T07:15:21.592Z,12.8
2023-03-23T07:20:27.748Z,12.8
2023-03-23T07:25:33.751Z,13.0
2023-03-23T07:30:22.064Z,12.9
2023-03-23T07:35:28.276Z,12.7
2023-03-23T07:40:17.370Z,13.0
2023-03-23T07:45:23.155Z,13.0
2023-03-23T07:50:29.297Z,13.2
2023-03-23T07:55:18.339Z,13.3
2023-03-23T08:00:28.491Z,13.4
2023-03-23T08:05:30.722Z,13.6
2023-03-23T08:10:19.340Z,13.7
2023-03-23T08:15:25.575Z,13.7
2023-03-23T08:20:32.195Z,13.9
2023-03-23T08:25:21.025Z,13.8
2023-03-23T08:30:26.974Z,13.7
2023-03-23T08:35:32.890Z,13.5
2023-03-23T08:40:23.972Z,13.4
2023-03-23T08:45:27.821Z,13.4
2023-03-23T08:50:16.788Z,13.9
2023-03-23T08:55:22.904Z,13.9
2023-03-23T09:00:33.889Z,13.7
2023-03-23T09:05:18.521Z,13.6
2023-03-23T09:10:24.375Z,13.3
2023-03-23T09:15:34.138Z,13.3
2023-03-23T09:20:19.721Z,13.2
2023-03-23T09:25:25.054Z,13.3
2023-03-23T09:30:30.677Z,13.4
2023-03-23T09:35:19.926Z,13.7
2023-03-23T09:40:26.259Z,13.6
2023-03-23T09:45:32.039Z,13.6
2023-03-23T09:50:21.411Z,13.8
2023-03-23T09:55:27.673Z,14.0
2023-03-23T10:00:48.314Z,14.0
2023-03-23T10:05:21.986Z,13.9
2023-03-23T10:10:27.838Z,13.9
2023-03-23T10:15:17.173Z,14.0
2023-03-23T10:20:22.790Z,14.0
2023-03-23T10:25:28.595Z,14.2
2023-03-23T10:30:17.687Z,14.3
2023-03-23T10:35:24.124Z,14.5
2023-03-23T10:40:29.871Z,14.5
2023-03-23T10:45:18.442Z,14.6
2023-03-23T10:50:24.626Z,14.7
2023-03-23T10:55:30.910Z,14.5
2023-03-23T11:00:22.554Z,14.9
2023-03-23T11:05:26.494Z,14.9
2023-03-23T11:10:32.697Z,14.9
2023-03-23T11:15:21.339Z,15.0
2023-03-23T11:20:29.738Z,15.0
2023-03-23T11:25:33.442Z,15.1
2023-03-23T11:30:22.278Z,15.0
2023-03-23T11:35:28.141Z,15.3
2023-03-23T11:40:18.457Z,15.3
2023-03-23T11:45:23.214Z,15.2
2023-03-23T11:50:32.048Z,15.0
2023-03-23T11:55:18.080Z,14.8
2023-03-23T12:00:29.974Z,14.9
2023-03-23T12:05:29.968Z,15.0
2023-03-23T12:10:25.449Z,14.8
2023-03-23T12:15:27.068Z,14.9
2023-03-23T12:20:42.860Z,14.8
2023-03-23T12:25:19.975Z,14.5
2023-03-23T12:30:25.524Z,14.3
2023-03-23T12:35:31.579Z,13.8
2023-03-23T12:40:22.091Z,13.8
2023-03-23T12:45:26.969Z,13.6
2023-03-23T12:50:32.681Z,13.4
2023-03-23T12:55:21.966Z,13.6
2023-03-23T13:00:28.810Z,13.9
2023-03-23T13:05:17.177Z,14.0
2023-03-23T13:10:23.197Z,14.0
2023-03-23T13:15:29.234Z,13.9
2023-03-23T13:20:18.722Z,13.9
2023-03-23T13:25:24.357Z,13.8
2023-03-23T13:30:31.474Z,13.9
2023-03-23T13:35:20.743Z,14.2
2023-03-23T13:40:26.075Z,14.4
2023-03-23T13:45:31.757Z,14.4
2023-03-23T13:50:20.651Z,14.3
2023-03-23T13:55:26.684Z,14.3
2023-03-23T14:00:21.822Z,14.3
2023-03-23T14:05:21.490Z,14.5
2023-03-23T14:10:27.232Z,14.5
2023-03-23T14:15:33.301Z,14.5
2023-03-23T14:20:23.425Z,14.5
2023-03-23T14:25:29.403Z,14.3
2023-03-23T14:30:17.197Z,14.4
2023-03-23T14:35:23.280Z,14.7
2023-03-23T14:40:30.457Z,15.0
2023-03-23T14:45:18.362Z,14.9
2023-03-23T14:50:24.726Z,14.9
2023-03-23T14:55:30.213Z,14.9
2023-03-23T15:00:21.855Z,15.1
2023-03-23T15:05:24.665Z,14.9
2023-03-23T15:10:31.024Z,14.9
2023-03-23T15:15:21.336Z,14.9
2023-03-23T15:20:28.427Z,14.9
2023-03-23T15:25:33.288Z,14.9
2023-03-23T15:30:20.327Z,14.8
2023-03-23T15:35:26.412Z,14.7
2023-03-23T15:40:32.769Z,14.7
2023-03-23T15:45:21.750Z,14.6
2023-03-23T15:50:27.872Z,14.6
2023-03-23T15:55:16.922Z,14.6
2023-03-23T16:00:24.810Z,14.7
2023-03-23T16:05:29.672Z,14.8
2023-03-23T16:10:19.169Z,14.7
2023-03-23T16:15:24.484Z,14.7
2023-03-23T16:20:30.875Z,14.7
2023-03-23T16:25:19.373Z,14.7
2023-03-23T16:30:24.929Z,14.7
2023-03-23T16:35:30.919Z,14.6
2023-03-23T16:40:21.516Z,14.6
2023-03-23T16:45:26.460Z,14.5
2023-03-23T16:50:32.228Z,14.6
2023-03-23T16:55:21.253Z,14.5
2023-03-23T17:00:30.365Z,14.5
2023-03-23T17:05:32.517Z,14.4
2023-03-23T17:10:21.548Z,14.3
2023-03-23T17:15:28.037Z,14.2
2023-03-23T17:20:17.660Z,14.2
2023-03-23T17:25:22.850Z,14.1
2023-03-23T17:30:28.662Z,14.0
2023-03-23T17:35:18.681Z,13.9
2023-03-23T17:40:25.441Z,13.9
2023-03-23T17:45:29.461Z,13.8
2023-03-23T17:50:18.504Z,13.7
2023-03-23T17:55:24.768Z,13.5
2023-03-23T18:00:35.830Z,13.4
2023-03-23T18:05:20.143Z,13.3
2023-03-23T18:10:26.384Z,13.1
2023-03-23T18:15:33.774Z,12.9
2023-03-23T18:20:21.622Z,12.7
2023-03-23T18:25:27.242Z,12.8
2023-03-23T18:30:32.951Z,13.1
2023-03-23T18:35:22.188Z,13.3
2023-03-23T18:40:28.003Z,13.3
2023-03-23T18:45:18.156Z,13.4
2023-03-23T18:50:23.147Z,13.6
2023-03-23T18:55:29.688Z,13.5
2023-03-23T19:00:22.251Z,13.5
2023-03-23T19:05:23.668Z,13.3
2023-03-23T19:10:29.964Z,13.2
2023-03-23T19:15:18.821Z,13.0
2023-03-23T19:20:54.934Z,12.8
2023-03-23T19:25:31.216Z,12.4
2023-03-23T19:30:19.136Z,12.1
2023-03-23T19:35:26.487Z,11.7
2023-03-23T19:40:40.635Z,11.4
2023-03-23T19:45:20.525Z,11.1
2023-03-23T19:50:26.652Z,10.8
2023-03-23T19:55:32.484Z,10.5
2023-03-23T20:00:25.028Z,10.3
2023-03-23T20:05:28.066Z,10.1
2023-03-23T20:10:16.910Z,9.9
2023-03-23T20:15:23.308Z,9.7
2023-03-23T20:20:29.271Z,9.6
2023-03-23T20:25:18.335Z,9.5
2023-03-23T20:30:23.799Z,9.4
2023-03-23T20:35:29.792Z,9.3
2023-03-23T20:40:19.854Z,9.2
2023-03-23T20:45:24.925Z,9.1
2023-03-23T20:50:30.735Z,9.0
2023-03-23T20:55:19.803Z,8.9
2023-03-23T21:00:26.405Z,8.9
2023-03-23T21:05:32.082Z,8.9
2023-03-23T21:10:21.116Z,8.8
2023-03-23T21:15:27.446Z,8.8
2023-03-23T21:20:33.639Z,8.7
2023-03-23T21:25:22.493Z,8.8
2023-03-23T21:30:28.121Z,8.7
2023-03-23T21:35:16.890Z,8.7
2023-03-23T21:40:23.921Z,8.8
2023-03-23T21:45:29.043Z,8.8
2023-03-23T21:50:18.058Z,8.8
2023-03-23T21:55:24.134Z,9.0
2023-03-23T22:00:33.852Z,9.5
2023-03-23T22:05:18.797Z,10.0
2023-03-23T22:10:24.922Z,10.6
2023-03-23T22:15:30.727Z,11.3
2023-03-23T22:20:20.334Z,11.9
2023-03-23T22:25:25.819Z,12.2
2023-03-23T22:30:31.799Z,12.3
2023-03-23T22:35:20.541Z,12.6
2023-03-23T22:40:26.707Z,12.5
2023-03-23T22:45:33.053Z,12.7
2023-03-23T22:50:21.715Z,12.7
2023-03-23T22:55:28.035Z,12.8
2023-03-23T23:00:17.550Z,12.9
2023-03-23T23:05:22.489Z,12.8
2023-03-23T23:10:28.804Z,12.9
2023-03-23T23:15:17.416Z,12.8
2023-03-23T23:20:25.007Z,12.8
2023-03-23T23:25:29.689Z,12.8
2023-03-23T23:30:19.087Z,12.8
2023-03-23T23:35:25.185Z,12.7
2023-03-23T23:40:31.513Z,12.7
2023-03-23T23:45:20.503Z,12.6
2023-03-23T23:50:26.336Z,12.7
2023-03-23T23:55:32.372Z,12.7
